Ely, Nevada
Current Conditions -  °F | °C
As of 9:53 PM on Wednesday 22 Oct 2014 (Local Time) from KELY Reporting Station
Clear Clear  
Wind Chill: 10°   Ceiling: Unl
Heat Index: 10°   Visibility: 10mi
Dew Point: -7°   Wind: 12mph
Humidity: 29%   Direction: 200°SSW
Pressure: 30.2"   Gusts: NA
Location:  39.25°N, 114.87°W
Report Text: KELY 230453Z AUTO 20010KT 10SM CLR 10/M07 A3020 RMK AO2 SLP176 T01001072
Loading
Personal Weather Stations






























Interactive Weather Map
Tropical Storm Tracking
New forecast layout! Learn more

10-Day Weather Forecast

Advertisements
Track Severe Weather on mobile